Terminal Aerodrome Forecast
Issued by NWS

Home | Current Version | Previous Version | Text Only | Print | Product List | Glossary On
Versions: 1 2 3 4 5 6 7 8 9 10 11 12 13 14 15 16
000
FTUS46 KSEW 172320
TAFHQM
TAF
KHQM 172320Z 1800/1824 16025G35KT 5SM -RA BR OVC035
      TEMPO 1800/1802 3SM RA BR OVC020
     FM180400 16015G25KT P6SM -SHRA BKN025 OVC040
     FM181400 14012KT P6SM VCSH BKN040=

USA.gov is the U.S. government's official web portal to all federal, state and local government web resources and services.